Webster, Kentucky
Current Conditions -  °F | °C
As of 5:58 AM on Saturday 25 Oct 2014 (Local Time) from KFTK Reporting Station
Broken Clouds Broken Clouds  
Wind Chill: 46°   Ceiling: 5500
Heat Index: 49°   Visibility: 10mi
Dew Point: 47°   Wind: 6mph
Humidity: 94%   Direction: 200°SSW
Pressure: 30.03"   Gusts: NA
Location:  37.89°N, 86.34°W
Report Text: KFTK 251058Z AUTO 20005KT 10SM SCT042 BKN055 09/08 A3003 RMK AO2 SLP171 T00920083
Loading
Personal Weather Stations






























Interactive Weather Map
Tropical Storm Tracking
New forecast layout! Learn more

10-Day Weather Forecast

Advertisements
Track Severe Weather on mobile